sensor_id;sensor_type;location;lat;lon;timestamp;P1;durP1;ratioP1;P2;durP2;ratioP2
4214;SDS011;2121;48.062;7.850;2023-12-28T00:01:24;3.03;;;2.10;;
4214;SDS011;2121;48.062;7.850;2023-12-28T00:03:50;2.93;;;2.70;;
4214;SDS011;2121;48.062;7.850;2023-12-28T00:06:16;2.20;;;2.10;;
4214;SDS011;2121;48.062;7.850;2023-12-28T00:08:41;2.30;;;2.20;;
4214;SDS011;2121;48.062;7.850;2023-12-28T00:11:07;2.30;;;2.10;;
4214;SDS011;2121;48.062;7.850;2023-12-28T00:13:33;2.80;;;2.07;;
4214;SDS011;2121;48.062;7.850;2023-12-28T00:15:59;2.10;;;1.90;;
4214;SDS011;2121;48.062;7.850;2023-12-28T00:18:25;2.17;;;1.97;;
4214;SDS011;2121;48.062;7.850;2023-12-28T00:20:50;4.37;;;2.47;;
4214;SDS011;2121;48.062;7.850;2023-12-28T00:23:18;2.80;;;2.20;;
4214;SDS011;2121;48.062;7.850;2023-12-28T00:25:45;1.93;;;1.83;;
4214;SDS011;2121;48.062;7.850;2023-12-28T00:28:11;3.30;;;2.10;;
4214;SDS011;2121;48.062;7.850;2023-12-28T00:30:37;2.43;;;2.23;;
4214;SDS011;2121;48.062;7.850;2023-12-28T00:33:03;2.37;;;2.27;;
4214;SDS011;2121;48.062;7.850;2023-12-28T00:35:29;2.00;;;1.90;;
4214;SDS011;2121;48.062;7.850;2023-12-28T00:37:54;2.53;;;2.37;;
4214;SDS011;2121;48.062;7.850;2023-12-28T00:40:20;1.70;;;1.60;;
4214;SDS011;2121;48.062;7.850;2023-12-28T00:42:47;1.90;;;1.80;;
4214;SDS011;2121;48.062;7.850;2023-12-28T00:45:13;2.33;;;2.20;;
4214;SDS011;2121;48.062;7.850;2023-12-28T00:47:39;2.20;;;2.10;;
4214;SDS011;2121;48.062;7.850;2023-12-28T00:50:08;2.43;;;2.00;;
4214;SDS011;2121;48.062;7.850;2023-12-28T00:52:36;3.20;;;2.20;;
4214;SDS011;2121;48.062;7.850;2023-12-28T00:55:03;2.03;;;1.83;;
4214;SDS011;2121;48.062;7.850;2023-12-28T00:57:30;3.53;;;2.73;;
4214;SDS011;2121;48.062;7.850;2023-12-28T00:59:56;2.07;;;1.90;;
4214;SDS011;2121;48.062;7.850;2023-12-28T01:02:21;2.30;;;2.17;;
4214;SDS011;2121;48.062;7.850;2023-12-28T01:04:47;2.60;;;2.40;;
4214;SDS011;2121;48.062;7.850;2023-12-28T01:07:13;2.33;;;1.97;;
4214;SDS011;2121;48.062;7.850;2023-12-28T01:09:38;2.60;;;2.20;;
4214;SDS011;2121;48.062;7.850;2023-12-28T01:12:04;3.63;;;2.13;;
4214;SDS011;2121;48.062;7.850;2023-12-28T01:14:31;1.93;;;1.73;;
4214;SDS011;2121;48.062;7.850;2023-12-28T01:16:57;3.10;;;2.10;;
4214;SDS011;2121;48.062;7.850;2023-12-28T01:19:23;3.00;;;2.03;;
4214;SDS011;2121;48.062;7.850;2023-12-28T01:21:49;2.40;;;2.20;;
4214;SDS011;2121;48.062;7.850;2023-12-28T01:24:15;2.70;;;2.50;;
4214;SDS011;2121;48.062;7.850;2023-12-28T01:26:40;2.50;;;2.30;;
4214;SDS011;2121;48.062;7.850;2023-12-28T01:29:06;2.43;;;2.00;;
4214;SDS011;2121;48.062;7.850;2023-12-28T01:31:32;3.70;;;2.20;;
4214;SDS011;2121;48.062;7.850;2023-12-28T01:33:58;2.13;;;2.03;;
4214;SDS011;2121;48.062;7.850;2023-12-28T01:36:23;5.10;;;2.60;;
4214;SDS011;2121;48.062;7.850;2023-12-28T01:38:49;2.23;;;2.03;;
4214;SDS011;2121;48.062;7.850;2023-12-28T01:41:15;3.13;;;2.30;;
4214;SDS011;2121;48.062;7.850;2023-12-28T01:43:41;3.43;;;2.40;;
4214;SDS011;2121;48.062;7.850;2023-12-28T01:46:08;2.27;;;2.13;;
4214;SDS011;2121;48.062;7.850;2023-12-28T01:48:41;2.77;;;2.13;;
4214;SDS011;2121;48.062;7.850;2023-12-28T01:51:09;2.57;;;2.10;;
4214;SDS011;2121;48.062;7.850;2023-12-28T01:53:36;2.37;;;2.27;;
4214;SDS011;2121;48.062;7.850;2023-12-28T01:56:02;2.90;;;2.00;;
4214;SDS011;2121;48.062;7.850;2023-12-28T01:58:29;2.43;;;2.07;;
4214;SDS011;2121;48.062;7.850;2023-12-28T02:01:00;4.73;;;2.47;;
4214;SDS011;2121;48.062;7.850;2023-12-28T02:03:26;2.70;;;2.57;;
4214;SDS011;2121;48.062;7.850;2023-12-28T02:05:53;2.50;;;2.30;;
4214;SDS011;2121;48.062;7.850;2023-12-28T02:08:19;3.17;;;2.40;;
4214;SDS011;2121;48.062;7.850;2023-12-28T02:10:45;3.23;;;2.40;;
4214;SDS011;2121;48.062;7.850;2023-12-28T02:13:11;4.73;;;2.33;;
4214;SDS011;2121;48.062;7.850;2023-12-28T02:15:37;2.20;;;2.00;;
4214;SDS011;2121;48.062;7.850;2023-12-28T02:18:05;2.00;;;1.90;;
4214;SDS011;2121;48.062;7.850;2023-12-28T02:20:41;2.17;;;2.03;;
4214;SDS011;2121;48.062;7.850;2023-12-28T02:23:09;2.60;;;2.40;;
4214;SDS011;2121;48.062;7.850;2023-12-28T02:25:35;2.27;;;2.13;;
4214;SDS011;2121;48.062;7.850;2023-12-28T02:28:01;3.47;;;2.20;;
4214;SDS011;2121;48.062;7.850;2023-12-28T02:30:28;2.70;;;2.03;;
4214;SDS011;2121;48.062;7.850;2023-12-28T02:35:56;3.70;;;2.23;;
4214;SDS011;2121;48.062;7.850;2023-12-28T02:38:24;2.03;;;1.93;;
4214;SDS011;2121;48.062;7.850;2023-12-28T02:40:51;2.53;;;2.33;;
4214;SDS011;2121;48.062;7.850;2023-12-28T02:43:18;2.17;;;2.00;;
4214;SDS011;2121;48.062;7.850;2023-12-28T02:45:44;2.17;;;2.07;;
4214;SDS011;2121;48.062;7.850;2023-12-28T02:48:09;3.43;;;2.40;;
4214;SDS011;2121;48.062;7.850;2023-12-28T02:50:36;2.37;;;1.80;;
4214;SDS011;2121;48.062;7.850;2023-12-28T02:53:02;2.00;;;1.90;;
4214;SDS011;2121;48.062;7.850;2023-12-28T02:55:28;2.20;;;2.00;;
4214;SDS011;2121;48.062;7.850;2023-12-28T02:57:55;2.40;;;2.13;;
4214;SDS011;2121;48.062;7.850;2023-12-28T03:00:25;2.87;;;2.60;;
4214;SDS011;2121;48.062;7.850;2023-12-28T03:02:51;2.30;;;2.20;;
4214;SDS011;2121;48.062;7.850;2023-12-28T03:05:17;2.50;;;2.10;;
4214;SDS011;2121;48.062;7.850;2023-12-28T03:07:43;2.20;;;1.93;;
4214;SDS011;2121;48.062;7.850;2023-12-28T03:10:09;1.70;;;1.60;;
4214;SDS011;2121;48.062;7.850;2023-12-28T03:12:36;1.83;;;1.73;;
4214;SDS011;2121;48.062;7.850;2023-12-28T03:15:02;2.50;;;2.30;;
4214;SDS011;2121;48.062;7.850;2023-12-28T03:17:29;2.00;;;1.90;;
4214;SDS011;2121;48.062;7.850;2023-12-28T03:19:56;2.20;;;1.97;;
4214;SDS011;2121;48.062;7.850;2023-12-28T03:22:26;3.37;;;2.27;;
4214;SDS011;2121;48.062;7.850;2023-12-28T03:24:52;1.90;;;1.80;;
4214;SDS011;2121;48.062;7.850;2023-12-28T03:27:17;2.30;;;2.13;;
4214;SDS011;2121;48.062;7.850;2023-12-28T03:29:43;2.07;;;1.97;;
4214;SDS011;2121;48.062;7.850;2023-12-28T03:32:09;2.20;;;1.97;;
4214;SDS011;2121;48.062;7.850;2023-12-28T03:34:35;2.10;;;2.00;;
4214;SDS011;2121;48.062;7.850;2023-12-28T03:37:01;2.40;;;1.77;;
4214;SDS011;2121;48.062;7.850;2023-12-28T03:39:27;3.23;;;2.10;;
4214;SDS011;2121;48.062;7.850;2023-12-28T03:41:53;2.30;;;2.10;;
4214;SDS011;2121;48.062;7.850;2023-12-28T03:44:19;3.17;;;1.80;;
4214;SDS011;2121;48.062;7.850;2023-12-28T03:46:47;2.13;;;2.00;;
4214;SDS011;2121;48.062;7.850;2023-12-28T03:49:20;2.10;;;1.90;;
4214;SDS011;2121;48.062;7.850;2023-12-28T03:51:47;1.83;;;1.73;;
4214;SDS011;2121;48.062;7.850;2023-12-28T03:54:15;2.73;;;2.53;;
4214;SDS011;2121;48.062;7.850;2023-12-28T03:56:42;3.70;;;2.23;;
4214;SDS011;2121;48.062;7.850;2023-12-28T03:59:09;4.40;;;2.40;;
4214;SDS011;2121;48.062;7.850;2023-12-28T04:01:35;3.50;;;2.17;;
4214;SDS011;2121;48.062;7.850;2023-12-28T04:04:01;2.40;;;2.20;;
4214;SDS011;2121;48.062;7.850;2023-12-28T04:06:27;1.80;;;1.70;;
4214;SDS011;2121;48.062;7.850;2023-12-28T04:08:53;6.50;;;1.80;;
4214;SDS011;2121;48.062;7.850;2023-12-28T04:11:19;4.10;;;2.13;;
4214;SDS011;2121;48.062;7.850;2023-12-28T04:13:45;3.00;;;2.67;;
4214;SDS011;2121;48.062;7.850;2023-12-28T04:16:14;2.03;;;1.90;;
4214;SDS011;2121;48.062;7.850;2023-12-28T04:18:41;2.00;;;1.90;;
4214;SDS011;2121;48.062;7.850;2023-12-28T04:21:10;1.87;;;1.77;;
4214;SDS011;2121;48.062;7.850;2023-12-28T04:23:37;2.90;;;1.83;;
4214;SDS011;2121;48.062;7.850;2023-12-28T04:26:04;2.73;;;1.90;;
4214;SDS011;2121;48.062;7.850;2023-12-28T04:28:30;2.53;;;2.30;;
4214;SDS011;2121;48.062;7.850;2023-12-28T04:30:56;1.90;;;1.80;;
4214;SDS011;2121;48.062;7.850;2023-12-28T04:33:21;2.10;;;1.90;;
4214;SDS011;2121;48.062;7.850;2023-12-28T04:35:47;2.30;;;1.77;;
4214;SDS011;2121;48.062;7.850;2023-12-28T04:38:13;1.50;;;1.40;;
4214;SDS011;2121;48.062;7.850;2023-12-28T04:40:40;3.43;;;2.43;;
4214;SDS011;2121;48.062;7.850;2023-12-28T04:43:06;1.97;;;1.87;;
4214;SDS011;2121;48.062;7.850;2023-12-28T04:45:32;4.20;;;2.23;;
4214;SDS011;2121;48.062;7.850;2023-12-28T04:47:57;2.43;;;2.23;;
4214;SDS011;2121;48.062;7.850;2023-12-28T04:50:24;2.27;;;2.13;;
4214;SDS011;2121;48.062;7.850;2023-12-28T04:52:49;2.60;;;2.43;;
4214;SDS011;2121;48.062;7.850;2023-12-28T04:55:15;2.20;;;1.93;;
4214;SDS011;2121;48.062;7.850;2023-12-28T04:57:41;3.20;;;1.80;;
4214;SDS011;2121;48.062;7.850;2023-12-28T05:00:07;7.70;;;2.07;;
4214;SDS011;2121;48.062;7.850;2023-12-28T05:02:34;3.00;;;2.00;;
4214;SDS011;2121;48.062;7.850;2023-12-28T05:04:59;2.30;;;2.10;;
4214;SDS011;2121;48.062;7.850;2023-12-28T05:07:25;2.00;;;1.90;;
4214;SDS011;2121;48.062;7.850;2023-12-28T05:09:51;2.03;;;1.80;;
4214;SDS011;2121;48.062;7.850;2023-12-28T05:12:17;2.37;;;2.17;;
4214;SDS011;2121;48.062;7.850;2023-12-28T05:14:43;2.10;;;2.00;;
4214;SDS011;2121;48.062;7.850;2023-12-28T05:17:08;2.17;;;1.93;;
4214;SDS011;2121;48.062;7.850;2023-12-28T05:19:34;2.00;;;1.90;;
4214;SDS011;2121;48.062;7.850;2023-12-28T05:22:00;1.73;;;1.63;;
4214;SDS011;2121;48.062;7.850;2023-12-28T05:24:28;5.73;;;2.10;;
4214;SDS011;2121;48.062;7.850;2023-12-28T05:26:54;2.23;;;2.03;;
4214;SDS011;2121;48.062;7.850;2023-12-28T05:29:20;1.80;;;1.70;;
4214;SDS011;2121;48.062;7.850;2023-12-28T05:31:46;2.40;;;2.20;;
4214;SDS011;2121;48.062;7.850;2023-12-28T05:34:11;2.00;;;1.90;;
4214;SDS011;2121;48.062;7.850;2023-12-28T05:36:37;2.13;;;2.03;;
4214;SDS011;2121;48.062;7.850;2023-12-28T05:39:05;2.20;;;2.00;;
4214;SDS011;2121;48.062;7.850;2023-12-28T05:41:31;2.03;;;1.93;;
4214;SDS011;2121;48.062;7.850;2023-12-28T05:43:57;4.10;;;2.27;;
4214;SDS011;2121;48.062;7.850;2023-12-28T05:46:22;2.37;;;2.17;;
4214;SDS011;2121;48.062;7.850;2023-12-28T05:48:48;2.47;;;1.93;;
4214;SDS011;2121;48.062;7.850;2023-12-28T05:51:14;1.90;;;1.80;;
4214;SDS011;2121;48.062;7.850;2023-12-28T05:53:39;6.80;;;1.90;;
4214;SDS011;2121;48.062;7.850;2023-12-28T05:56:05;2.30;;;2.10;;
4214;SDS011;2121;48.062;7.850;2023-12-28T05:58:31;2.97;;;2.03;;
4214;SDS011;2121;48.062;7.850;2023-12-28T06:00:57;4.03;;;2.00;;
4214;SDS011;2121;48.062;7.850;2023-12-28T06:03:22;2.00;;;1.90;;
4214;SDS011;2121;48.062;7.850;2023-12-28T06:05:53;4.10;;;2.53;;
4214;SDS011;2121;48.062;7.850;2023-12-28T06:08:20;3.90;;;2.33;;
4214;SDS011;2121;48.062;7.850;2023-12-28T06:10:46;2.80;;;2.60;;
4214;SDS011;2121;48.062;7.850;2023-12-28T06:13:11;4.23;;;2.40;;
4214;SDS011;2121;48.062;7.850;2023-12-28T06:15:37;4.40;;;2.90;;
4214;SDS011;2121;48.062;7.850;2023-12-28T06:18:03;4.33;;;3.03;;
4214;SDS011;2121;48.062;7.850;2023-12-28T06:20:29;4.33;;;2.87;;
4214;SDS011;2121;48.062;7.850;2023-12-28T06:22:55;4.60;;;2.90;;
4214;SDS011;2121;48.062;7.850;2023-12-28T06:25:21;2.30;;;2.10;;
4214;SDS011;2121;48.062;7.850;2023-12-28T06:27:46;3.80;;;2.77;;
4214;SDS011;2121;48.062;7.850;2023-12-28T06:30:12;5.03;;;2.43;;
4214;SDS011;2121;48.062;7.850;2023-12-28T06:32:38;2.60;;;2.10;;
4214;SDS011;2121;48.062;7.850;2023-12-28T06:35:04;3.70;;;2.70;;
4214;SDS011;2121;48.062;7.850;2023-12-28T06:37:31;6.33;;;3.23;;
4214;SDS011;2121;48.062;7.850;2023-12-28T06:39:56;2.40;;;2.30;;
4214;SDS011;2121;48.062;7.850;2023-12-28T06:42:22;1.90;;;1.67;;
4214;SDS011;2121;48.062;7.850;2023-12-28T06:44:48;1.87;;;1.77;;
4214;SDS011;2121;48.062;7.850;2023-12-28T06:47:14;2.43;;;2.13;;
4214;SDS011;2121;48.062;7.850;2023-12-28T06:49:40;2.27;;;2.13;;
4214;SDS011;2121;48.062;7.850;2023-12-28T06:52:05;1.50;;;1.40;;
4214;SDS011;2121;48.062;7.850;2023-12-28T06:54:31;2.10;;;1.80;;
4214;SDS011;2121;48.062;7.850;2023-12-28T06:56:57;2.10;;;2.00;;
4214;SDS011;2121;48.062;7.850;2023-12-28T06:59:23;2.40;;;2.20;;
4214;SDS011;2121;48.062;7.850;2023-12-28T07:01:48;2.10;;;1.90;;
4214;SDS011;2121;48.062;7.850;2023-12-28T07:04:14;1.90;;;1.80;;
4214;SDS011;2121;48.062;7.850;2023-12-28T07:06:40;2.20;;;1.60;;
4214;SDS011;2121;48.062;7.850;2023-12-28T07:09:06;1.93;;;1.80;;
4214;SDS011;2121;48.062;7.850;2023-12-28T07:11:32;3.13;;;1.93;;
4214;SDS011;2121;48.062;7.850;2023-12-28T07:13:57;2.00;;;1.90;;
4214;SDS011;2121;48.062;7.850;2023-12-28T07:16:23;2.40;;;2.00;;
4214;SDS011;2121;48.062;7.850;2023-12-28T07:18:49;1.93;;;1.80;;
4214;SDS011;2121;48.062;7.850;2023-12-28T07:21:15;2.20;;;2.10;;
4214;SDS011;2121;48.062;7.850;2023-12-28T07:23:40;2.63;;;2.10;;
4214;SDS011;2121;48.062;7.850;2023-12-28T07:26:06;2.30;;;2.10;;
4214;SDS011;2121;48.062;7.850;2023-12-28T07:28:32;2.03;;;1.93;;
4214;SDS011;2121;48.062;7.850;2023-12-28T07:30:58;3.67;;;2.10;;
4214;SDS011;2121;48.062;7.850;2023-12-28T07:33:24;2.00;;;1.90;;
4214;SDS011;2121;48.062;7.850;2023-12-28T07:35:50;2.00;;;1.90;;
4214;SDS011;2121;48.062;7.850;2023-12-28T07:38:15;4.60;;;2.20;;
4214;SDS011;2121;48.062;7.850;2023-12-28T07:40:41;1.70;;;1.60;;
4214;SDS011;2121;48.062;7.850;2023-12-28T07:43:07;3.53;;;2.57;;
4214;SDS011;2121;48.062;7.850;2023-12-28T07:45:32;2.40;;;2.20;;
4214;SDS011;2121;48.062;7.850;2023-12-28T07:48:01;1.80;;;1.70;;
4214;SDS011;2121;48.062;7.850;2023-12-28T07:50:27;2.47;;;2.27;;
4214;SDS011;2121;48.062;7.850;2023-12-28T07:52:53;1.90;;;1.80;;
4214;SDS011;2121;48.062;7.850;2023-12-28T07:55:18;2.20;;;2.00;;
4214;SDS011;2121;48.062;7.850;2023-12-28T07:57:44;4.10;;;2.00;;
4214;SDS011;2121;48.062;7.850;2023-12-28T08:00:10;6.30;;;2.53;;
4214;SDS011;2121;48.062;7.850;2023-12-28T08:02:37;2.10;;;2.00;;
4214;SDS011;2121;48.062;7.850;2023-12-28T08:05:03;1.90;;;1.80;;
4214;SDS011;2121;48.062;7.850;2023-12-28T08:07:30;3.90;;;2.00;;
4214;SDS011;2121;48.062;7.850;2023-12-28T08:09:56;2.57;;;2.37;;
4214;SDS011;2121;48.062;7.850;2023-12-28T08:12:21;2.87;;;2.03;;
4214;SDS011;2121;48.062;7.850;2023-12-28T08:14:49;4.50;;;2.03;;
4214;SDS011;2121;48.062;7.850;2023-12-28T08:17:15;1.97;;;1.80;;
4214;SDS011;2121;48.062;7.850;2023-12-28T08:19:41;3.53;;;1.77;;
4214;SDS011;2121;48.062;7.850;2023-12-28T08:22:06;2.90;;;2.17;;
4214;SDS011;2121;48.062;7.850;2023-12-28T08:24:32;2.23;;;2.13;;
4214;SDS011;2121;48.062;7.850;2023-12-28T08:26:58;2.13;;;1.70;;
4214;SDS011;2121;48.062;7.850;2023-12-28T08:29:25;1.70;;;1.60;;
4214;SDS011;2121;48.062;7.850;2023-12-28T08:31:51;1.80;;;1.70;;
4214;SDS011;2121;48.062;7.850;2023-12-28T08:34:17;6.63;;;1.87;;
4214;SDS011;2121;48.062;7.850;2023-12-28T08:36:43;5.23;;;2.30;;
4214;SDS011;2121;48.062;7.850;2023-12-28T08:39:09;2.07;;;1.97;;
4214;SDS011;2121;48.062;7.850;2023-12-28T08:41:34;9.30;;;2.33;;
4214;SDS011;2121;48.062;7.850;2023-12-28T08:44:00;1.60;;;1.50;;
4214;SDS011;2121;48.062;7.850;2023-12-28T08:46:26;4.07;;;2.07;;
4214;SDS011;2121;48.062;7.850;2023-12-28T08:48:52;2.47;;;2.07;;
4214;SDS011;2121;48.062;7.850;2023-12-28T08:51:18;5.83;;;2.17;;
4214;SDS011;2121;48.062;7.850;2023-12-28T08:53:43;2.00;;;1.70;;
4214;SDS011;2121;48.062;7.850;2023-12-28T08:56:16;2.10;;;2.00;;
4214;SDS011;2121;48.062;7.850;2023-12-28T08:58:46;2.97;;;2.50;;
4214;SDS011;2121;48.062;7.850;2023-12-28T09:01:17;2.77;;;2.57;;
4214;SDS011;2121;48.062;7.850;2023-12-28T09:03:52;1.70;;;1.60;;
4214;SDS011;2121;48.062;7.850;2023-12-28T09:06:19;2.07;;;1.90;;
4214;SDS011;2121;48.062;7.850;2023-12-28T09:08:47;2.20;;;2.10;;
4214;SDS011;2121;48.062;7.850;2023-12-28T09:11:15;1.90;;;1.80;;
4214;SDS011;2121;48.062;7.850;2023-12-28T09:13:42;1.93;;;1.83;;
4214;SDS011;2121;48.062;7.850;2023-12-28T09:16:09;3.00;;;2.20;;
4214;SDS011;2121;48.062;7.850;2023-12-28T09:18:36;2.17;;;2.03;;
4214;SDS011;2121;48.062;7.850;2023-12-28T09:21:03;1.97;;;1.87;;
4214;SDS011;2121;48.062;7.850;2023-12-28T09:23:31;1.73;;;1.63;;
4214;SDS011;2121;48.062;7.850;2023-12-28T09:25:59;2.10;;;2.00;;
4214;SDS011;2121;48.062;7.850;2023-12-28T09:28:29;2.30;;;2.10;;
4214;SDS011;2121;48.062;7.850;2023-12-28T09:30:59;2.93;;;2.03;;
4214;SDS011;2121;48.062;7.850;2023-12-28T09:33:26;2.30;;;2.10;;
4214;SDS011;2121;48.062;7.850;2023-12-28T09:35:52;2.00;;;1.80;;
4214;SDS011;2121;48.062;7.850;2023-12-28T09:38:18;4.13;;;2.20;;
4214;SDS011;2121;48.062;7.850;2023-12-28T09:40:44;2.33;;;2.17;;
4214;SDS011;2121;48.062;7.850;2023-12-28T09:43:13;3.10;;;2.53;;
4214;SDS011;2121;48.062;7.850;2023-12-28T09:45:52;2.37;;;2.17;;
4214;SDS011;2121;48.062;7.850;2023-12-28T09:48:19;2.70;;;2.20;;
4214;SDS011;2121;48.062;7.850;2023-12-28T09:50:50;2.30;;;2.10;;
4214;SDS011;2121;48.062;7.850;2023-12-28T09:53:23;2.23;;;2.03;;
4214;SDS011;2121;48.062;7.850;2023-12-28T09:55:50;3.47;;;1.97;;
4214;SDS011;2121;48.062;7.850;2023-12-28T09:58:17;2.87;;;2.67;;
4214;SDS011;2121;48.062;7.850;2023-12-28T10:00:44;2.10;;;2.00;;
4214;SDS011;2121;48.062;7.850;2023-12-28T10:03:13;2.17;;;2.07;;
4214;SDS011;2121;48.062;7.850;2023-12-28T10:05:43;2.60;;;2.40;;
4214;SDS011;2121;48.062;7.850;2023-12-28T10:08:12;4.80;;;2.30;;
4214;SDS011;2121;48.062;7.850;2023-12-28T10:10:39;1.73;;;1.63;;
4214;SDS011;2121;48.062;7.850;2023-12-28T10:13:06;2.07;;;1.93;;
4214;SDS011;2121;48.062;7.850;2023-12-28T10:15:33;3.67;;;1.53;;
4214;SDS011;2121;48.062;7.850;2023-12-28T10:18:00;10.80;;;1.90;;
4214;SDS011;2121;48.062;7.850;2023-12-28T10:20:26;2.13;;;2.03;;
4214;SDS011;2121;48.062;7.850;2023-12-28T10:22:52;2.80;;;2.33;;
4214;SDS011;2121;48.062;7.850;2023-12-28T10:25:18;1.90;;;1.80;;
4214;SDS011;2121;48.062;7.850;2023-12-28T10:27:44;2.87;;;2.40;;
4214;SDS011;2121;48.062;7.850;2023-12-28T10:30:10;2.43;;;2.00;;
4214;SDS011;2121;48.062;7.850;2023-12-28T10:32:39;1.97;;;1.77;;
4214;SDS011;2121;48.062;7.850;2023-12-28T10:35:05;1.93;;;1.83;;
4214;SDS011;2121;48.062;7.850;2023-12-28T10:37:32;2.40;;;2.20;;
4214;SDS011;2121;48.062;7.850;2023-12-28T10:40:00;3.27;;;2.57;;
4214;SDS011;2121;48.062;7.850;2023-12-28T10:42:32;3.00;;;2.50;;
4214;SDS011;2121;48.062;7.850;2023-12-28T10:45:03;2.00;;;1.90;;
4214;SDS011;2121;48.062;7.850;2023-12-28T10:47:33;4.70;;;2.13;;
4214;SDS011;2121;48.062;7.850;2023-12-28T10:50:04;2.00;;;1.90;;
4214;SDS011;2121;48.062;7.850;2023-12-28T10:52:31;2.60;;;2.40;;
4214;SDS011;2121;48.062;7.850;2023-12-28T10:57:58;3.30;;;2.80;;
4214;SDS011;2121;48.062;7.850;2023-12-28T11:00:35;2.60;;;2.30;;
4214;SDS011;2121;48.062;7.850;2023-12-28T11:03:07;3.33;;;2.07;;
4214;SDS011;2121;48.062;7.850;2023-12-28T11:05:36;5.80;;;2.07;;
4214;SDS011;2121;48.062;7.850;2023-12-28T11:08:04;2.80;;;2.57;;
4214;SDS011;2121;48.062;7.850;2023-12-28T11:10:32;1.87;;;1.77;;
4214;SDS011;2121;48.062;7.850;2023-12-28T11:13:00;3.10;;;2.37;;
4214;SDS011;2121;48.062;7.850;2023-12-28T11:15:27;1.80;;;1.70;;
4214;SDS011;2121;48.062;7.850;2023-12-28T11:17:54;2.10;;;1.90;;
4214;SDS011;2121;48.062;7.850;2023-12-28T11:20:20;4.50;;;2.23;;
4214;SDS011;2121;48.062;7.850;2023-12-28T11:22:47;2.37;;;2.07;;
4214;SDS011;2121;48.062;7.850;2023-12-28T11:25:14;2.63;;;2.17;;
4214;SDS011;2121;48.062;7.850;2023-12-28T11:27:41;2.23;;;2.03;;
4214;SDS011;2121;48.062;7.850;2023-12-28T11:30:07;3.00;;;2.10;;
4214;SDS011;2121;48.062;7.850;2023-12-28T11:32:36;2.03;;;1.93;;
4214;SDS011;2121;48.062;7.850;2023-12-28T11:35:02;4.73;;;2.90;;
4214;SDS011;2121;48.062;7.850;2023-12-28T11:37:31;3.30;;;2.20;;
4214;SDS011;2121;48.062;7.850;2023-12-28T11:39:58;3.10;;;2.40;;
4214;SDS011;2121;48.062;7.850;2023-12-28T11:42:49;1.90;;;1.80;;
4214;SDS011;2121;48.062;7.850;2023-12-28T11:45:17;2.20;;;2.00;;
4214;SDS011;2121;48.062;7.850;2023-12-28T11:47:44;2.00;;;1.83;;
4214;SDS011;2121;48.062;7.850;2023-12-28T11:50:10;2.20;;;2.00;;
4214;SDS011;2121;48.062;7.850;2023-12-28T11:52:37;3.33;;;2.20;;
4214;SDS011;2121;48.062;7.850;2023-12-28T11:55:03;2.80;;;2.60;;
4214;SDS011;2121;48.062;7.850;2023-12-28T11:57:29;2.20;;;1.97;;
4214;SDS011;2121;48.062;7.850;2023-12-28T11:59:57;3.40;;;2.17;;
4214;SDS011;2121;48.062;7.850;2023-12-28T12:02:27;2.10;;;1.90;;
4214;SDS011;2121;48.062;7.850;2023-12-28T12:04:53;3.13;;;2.43;;
4214;SDS011;2121;48.062;7.850;2023-12-28T12:07:22;2.67;;;2.47;;
4214;SDS011;2121;48.062;7.850;2023-12-28T12:09:57;6.43;;;2.27;;
4214;SDS011;2121;48.062;7.850;2023-12-28T12:12:24;4.30;;;3.80;;
4214;SDS011;2121;48.062;7.850;2023-12-28T12:14:50;4.30;;;2.37;;
4214;SDS011;2121;48.062;7.850;2023-12-28T12:17:17;2.73;;;2.53;;
4214;SDS011;2121;48.062;7.850;2023-12-28T12:19:44;2.67;;;2.47;;
4214;SDS011;2121;48.062;7.850;2023-12-28T12:22:13;3.07;;;2.87;;
4214;SDS011;2121;48.062;7.850;2023-12-28T12:24:40;2.87;;;2.67;;
4214;SDS011;2121;48.062;7.850;2023-12-28T12:27:09;3.07;;;2.77;;
4214;SDS011;2121;48.062;7.850;2023-12-28T12:29:35;6.57;;;3.03;;
4214;SDS011;2121;48.062;7.850;2023-12-28T12:32:00;2.87;;;2.67;;
4214;SDS011;2121;48.062;7.850;2023-12-28T12:34:28;2.70;;;2.50;;
4214;SDS011;2121;48.062;7.850;2023-12-28T12:36:54;4.83;;;2.93;;
4214;SDS011;2121;48.062;7.850;2023-12-28T12:39:20;3.43;;;2.60;;
4214;SDS011;2121;48.062;7.850;2023-12-28T12:41:49;2.67;;;2.47;;
4214;SDS011;2121;48.062;7.850;2023-12-28T12:44:15;3.80;;;3.30;;
4214;SDS011;2121;48.062;7.850;2023-12-28T12:46:43;3.63;;;3.33;;
4214;SDS011;2121;48.062;7.850;2023-12-28T12:49:09;6.20;;;2.90;;
4214;SDS011;2121;48.062;7.850;2023-12-28T12:51:35;4.00;;;2.87;;
4214;SDS011;2121;48.062;7.850;2023-12-28T12:54:02;8.23;;;2.70;;
4214;SDS011;2121;48.062;7.850;2023-12-28T12:56:28;3.53;;;3.23;;
4214;SDS011;2121;48.062;7.850;2023-12-28T12:58:55;8.63;;;3.37;;
4214;SDS011;2121;48.062;7.850;2023-12-28T13:01:22;5.23;;;2.53;;
4214;SDS011;2121;48.062;7.850;2023-12-28T13:03:49;2.60;;;2.40;;
4214;SDS011;2121;48.062;7.850;2023-12-28T13:06:15;3.13;;;2.90;;
4214;SDS011;2121;48.062;7.850;2023-12-28T13:08:41;2.70;;;2.60;;
4214;SDS011;2121;48.062;7.850;2023-12-28T13:11:07;4.40;;;3.90;;
4214;SDS011;2121;48.062;7.850;2023-12-28T13:13:33;16.27;;;7.63;;
4214;SDS011;2121;48.062;7.850;2023-12-28T13:16:00;7.83;;;6.63;;
4214;SDS011;2121;48.062;7.850;2023-12-28T13:18:26;5.97;;;3.83;;
4214;SDS011;2121;48.062;7.850;2023-12-28T13:20:52;3.73;;;3.43;;
4214;SDS011;2121;48.062;7.850;2023-12-28T13:23:19;4.07;;;3.37;;
4214;SDS011;2121;48.062;7.850;2023-12-28T13:25:45;3.30;;;3.10;;
4214;SDS011;2121;48.062;7.850;2023-12-28T13:28:10;3.50;;;2.90;;
4214;SDS011;2121;48.062;7.850;2023-12-28T13:30:37;3.17;;;2.87;;
4214;SDS011;2121;48.062;7.850;2023-12-28T13:33:04;2.80;;;2.60;;
4214;SDS011;2121;48.062;7.850;2023-12-28T13:35:30;2.63;;;2.40;;
4214;SDS011;2121;48.062;7.850;2023-12-28T13:38:00;6.00;;;3.63;;
4214;SDS011;2121;48.062;7.850;2023-12-28T13:40:28;4.63;;;2.93;;
4214;SDS011;2121;48.062;7.850;2023-12-28T13:42:55;4.13;;;3.67;;
4214;SDS011;2121;48.062;7.850;2023-12-28T13:45:20;4.70;;;3.03;;
4214;SDS011;2121;48.062;7.850;2023-12-28T13:47:46;4.67;;;3.07;;
4214;SDS011;2121;48.062;7.850;2023-12-28T13:50:12;2.97;;;2.77;;
4214;SDS011;2121;48.062;7.850;2023-12-28T13:52:39;3.47;;;3.17;;
4214;SDS011;2121;48.062;7.850;2023-12-28T13:55:05;4.17;;;3.77;;
4214;SDS011;2121;48.062;7.850;2023-12-28T13:57:31;6.47;;;3.70;;
4214;SDS011;2121;48.062;7.850;2023-12-28T13:59:57;4.67;;;2.97;;
4214;SDS011;2121;48.062;7.850;2023-12-28T14:02:25;2.77;;;2.57;;
4214;SDS011;2121;48.062;7.850;2023-12-28T14:04:54;4.40;;;3.27;;
4214;SDS011;2121;48.062;7.850;2023-12-28T14:07:21;4.20;;;3.40;;
4214;SDS011;2121;48.062;7.850;2023-12-28T14:09:47;3.13;;;2.60;;
4214;SDS011;2121;48.062;7.850;2023-12-28T14:12:13;6.20;;;4.00;;
4214;SDS011;2121;48.062;7.850;2023-12-28T14:14:39;7.43;;;3.80;;
4214;SDS011;2121;48.062;7.850;2023-12-28T14:17:04;3.20;;;2.90;;
4214;SDS011;2121;48.062;7.850;2023-12-28T14:19:30;4.70;;;3.27;;
4214;SDS011;2121;48.062;7.850;2023-12-28T14:21:57;3.27;;;2.97;;
4214;SDS011;2121;48.062;7.850;2023-12-28T14:24:24;4.70;;;3.30;;
4214;SDS011;2121;48.062;7.850;2023-12-28T14:26:51;4.40;;;3.37;;
4214;SDS011;2121;48.062;7.850;2023-12-28T14:29:19;4.47;;;3.43;;
4214;SDS011;2121;48.062;7.850;2023-12-28T14:31:46;6.43;;;3.47;;
4214;SDS011;2121;48.062;7.850;2023-12-28T14:34:13;3.73;;;2.93;;
4214;SDS011;2121;48.062;7.850;2023-12-28T14:36:39;4.30;;;2.97;;
4214;SDS011;2121;48.062;7.850;2023-12-28T14:39:06;3.93;;;3.40;;
4214;SDS011;2121;48.062;7.850;2023-12-28T14:41:33;5.10;;;3.70;;
4214;SDS011;2121;48.062;7.850;2023-12-28T14:44:02;3.30;;;3.03;;
4214;SDS011;2121;48.062;7.850;2023-12-28T14:46:29;5.50;;;3.20;;
4214;SDS011;2121;48.062;7.850;2023-12-28T14:48:56;3.77;;;3.30;;
4214;SDS011;2121;48.062;7.850;2023-12-28T14:51:22;3.27;;;3.03;;
4214;SDS011;2121;48.062;7.850;2023-12-28T14:53:48;3.77;;;2.90;;
4214;SDS011;2121;48.062;7.850;2023-12-28T14:56:15;3.23;;;2.80;;
4214;SDS011;2121;48.062;7.850;2023-12-28T14:58:41;4.90;;;2.50;;
4214;SDS011;2121;48.062;7.850;2023-12-28T15:01:15;3.83;;;2.90;;
4214;SDS011;2121;48.062;7.850;2023-12-28T15:03:47;3.87;;;3.23;;
4214;SDS011;2121;48.062;7.850;2023-12-28T15:06:13;3.77;;;3.47;;
4214;SDS011;2121;48.062;7.850;2023-12-28T15:08:39;3.07;;;2.77;;
4214;SDS011;2121;48.062;7.850;2023-12-28T15:11:05;3.00;;;2.53;;
4214;SDS011;2121;48.062;7.850;2023-12-28T15:13:35;6.60;;;3.50;;
4214;SDS011;2121;48.062;7.850;2023-12-28T15:16:02;2.87;;;2.67;;
4214;SDS011;2121;48.062;7.850;2023-12-28T15:18:28;3.07;;;2.77;;